createdAt,value
2022-08-10T05:57:58.246Z,41.95
2022-08-10T06:00:10.978Z,42.03
2022-08-10T06:02:36.389Z,41.72
2022-08-10T06:04:41.993Z,41.49
2022-08-10T06:06:48.637Z,40.83
2022-08-10T06:08:54.494Z,40.98
2022-08-10T06:12:26.035Z,40.59
2022-08-10T06:13:59.970Z,40.77
2022-08-10T06:16:12.036Z,40.27
2022-08-10T06:18:16.058Z,40.53
2022-08-10T06:20:19.143Z,40.14
2022-08-10T06:22:22.297Z,40.47
2022-08-10T06:24:30.522Z,40.44
2022-08-10T06:26:33.790Z,40.33
2022-08-10T06:28:41.770Z,40.08
2022-08-10T06:30:47.384Z,40.28
2022-08-10T06:32:51.571Z,40.11
2022-08-10T06:34:57.655Z,40.13
2022-08-10T06:37:03.479Z,40.10
2022-08-10T06:39:31.934Z,40.07
2022-08-10T06:41:57.720Z,40.32
2022-08-10T06:44:05.047Z,40.08
2022-08-10T06:46:13.425Z,40.34
2022-08-10T06:48:25.462Z,40.17
2022-08-10T06:50:56.506Z,40.00
2022-08-10T06:53:03.040Z,40.46
2022-08-10T06:55:09.578Z,40.21
2022-08-10T06:57:20.116Z,40.48
2022-08-10T06:59:29.212Z,40.68
2022-08-10T07:01:35.413Z,40.30
2022-08-10T07:03:45.489Z,40.28
2022-08-10T07:05:51.561Z,40.36
2022-08-10T07:07:58.993Z,40.23
2022-08-10T07:10:02.456Z,40.64
2022-08-10T07:12:09.321Z,40.41
2022-08-10T07:14:15.634Z,40.40
2022-08-10T07:16:22.855Z,40.49
2022-08-10T07:18:28.017Z,40.36
2022-08-10T07:20:34.267Z,40.79
2022-08-10T07:23:01.305Z,40.80
2022-08-10T07:25:06.891Z,40.82
2022-08-10T07:27:11.392Z,40.85
2022-08-10T07:29:26.357Z,40.55
2022-08-10T07:31:56.969Z,40.96
2022-08-10T07:34:02.688Z,40.58
2022-08-10T07:36:07.323Z,40.51
2022-08-10T07:38:14.052Z,40.74
2022-08-10T07:40:20.322Z,40.67
2022-08-10T07:42:25.746Z,40.83
2022-08-10T07:44:30.219Z,40.68
2022-08-10T07:46:35.906Z,40.49
2022-08-10T07:48:45.264Z,40.65
2022-08-10T07:50:50.185Z,40.48
2022-08-10T07:52:54.070Z,40.66
2022-08-10T07:54:58.517Z,40.58
2022-08-10T07:57:04.206Z,40.72
2022-08-10T07:59:10.567Z,40.85
2022-08-10T08:01:15.905Z,40.97
2022-08-10T08:03:27.731Z,41.03
2022-08-10T08:05:58.030Z,40.78
2022-08-10T08:07:58.720Z,40.71
2022-08-10T08:10:03.238Z,41.13
2022-08-10T08:12:09.127Z,41.00
2022-08-10T08:14:14.925Z,41.19
2022-08-10T08:16:21.970Z,40.87
2022-08-10T08:18:27.530Z,41.27
2022-08-10T08:20:33.554Z,40.75
2022-08-10T08:24:08.954Z,41.08
2022-08-10T08:25:01.519Z,40.76
2022-08-10T08:27:06.074Z,41.16
2022-08-10T08:29:12.052Z,41.20
2022-08-10T08:31:16.302Z,40.90
2022-08-10T08:33:41.310Z,41.00
2022-08-10T08:35:46.157Z,40.89
2022-08-10T08:38:32.935Z,40.90
2022-08-10T08:40:22.270Z,40.94
2022-08-10T08:42:56.022Z,40.86
2022-08-10T08:45:15.356Z,41.06
2022-08-10T08:48:04.189Z,40.88
2022-08-10T08:50:17.252Z,41.13
2022-08-10T08:52:37.807Z,41.07
2022-08-10T08:54:55.265Z,40.74
2022-08-10T08:57:04.879Z,40.70
2022-08-10T08:59:24.510Z,41.10
2022-08-10T09:01:49.510Z,41.23
2022-08-10T09:03:59.778Z,41.16
2022-08-10T09:06:17.175Z,41.02
2022-08-10T09:08:52.242Z,41.07
2022-08-10T09:11:01.036Z,40.74
2022-08-10T09:13:10.891Z,40.77
2022-08-10T09:15:39.621Z,40.70
2022-08-10T09:17:56.498Z,40.62
2022-08-10T09:20:08.690Z,40.76
2022-08-10T09:22:19.354Z,40.96
2022-08-10T09:24:33.158Z,40.43
2022-08-10T09:26:46.859Z,40.76
2022-08-10T09:29:11.605Z,40.63
2022-08-10T09:31:23.026Z,40.63
2022-08-10T09:36:22.617Z,40.61
2022-08-10T09:36:27.544Z,40.33
2022-08-10T09:38:47.172Z,40.36
2022-08-10T09:41:04.040Z,40.36
2022-08-10T09:43:25.389Z,40.03
2022-08-10T09:45:37.196Z,40.13
2022-08-10T09:48:00.973Z,40.00
2022-08-10T09:50:18.321Z,40.02
2022-08-10T09:52:33.431Z,39.73
2022-08-10T09:54:48.813Z,39.74
2022-08-10T09:57:41.598Z,39.99
2022-08-10T10:00:00.411Z,39.96
2022-08-10T10:02:05.038Z,39.52
2022-08-10T10:04:16.725Z,39.75
2022-08-10T10:06:30.100Z,39.61
2022-08-10T10:08:42.726Z,39.61
2022-08-10T10:10:58.558Z,39.52
2022-08-10T10:13:08.854Z,39.43
2022-08-10T10:15:24.209Z,39.48
2022-08-10T10:17:41.797Z,39.51
2022-08-10T10:20:04.454Z,39.51
2022-08-10T10:22:22.111Z,39.11
2022-08-10T10:24:37.021Z,39.07
2022-08-10T10:26:48.969Z,39.32
2022-08-10T10:29:25.147Z,39.20
2022-08-10T10:31:35.820Z,39.09
2022-08-10T10:33:51.381Z,39.30
2022-08-10T10:35:56.065Z,39.41
2022-08-10T10:38:03.618Z,39.35
2022-08-10T10:40:08.936Z,39.60
2022-08-10T10:42:44.308Z,39.59
2022-08-10T10:44:57.451Z,39.68
2022-08-10T10:47:21.525Z,39.59
2022-08-10T10:49:39.917Z,39.78
2022-08-10T10:51:49.231Z,39.72
2022-08-10T10:54:03.494Z,39.46
2022-08-10T10:56:16.497Z,39.66
2022-08-10T10:58:28.644Z,39.77
2022-08-10T11:00:40.398Z,39.68
2022-08-10T11:03:00.967Z,39.53
2022-08-10T11:05:16.400Z,39.26
2022-08-10T11:07:31.728Z,39.28
2022-08-10T11:10:07.011Z,39.26
2022-08-10T11:12:19.661Z,39.43
2022-08-10T11:14:34.338Z,39.35
2022-08-10T11:16:47.314Z,39.42
2022-08-10T11:18:58.919Z,39.48
2022-08-10T11:21:11.129Z,39.38
2022-08-10T11:23:23.602Z,39.55
2022-08-10T11:25:31.455Z,39.68
2022-08-10T11:27:44.212Z,39.93
2022-08-10T11:29:56.151Z,39.90
2022-08-10T11:32:05.679Z,39.74
2022-08-10T11:34:48.787Z,39.94
2022-08-10T11:36:46.451Z,39.85
2022-08-10T11:39:13.437Z,39.86
2022-08-10T11:42:11.752Z,39.57
2022-08-10T11:43:55.301Z,39.37
2022-08-10T11:46:09.029Z,39.39
2022-08-10T11:48:54.163Z,39.37
2022-08-10T11:50:47.553Z,39.44
2022-08-10T11:52:57.594Z,39.30
2022-08-10T11:55:10.961Z,39.12
2022-08-10T11:57:16.205Z,39.06
2022-08-10T11:59:42.406Z,38.85
2022-08-10T12:01:48.074Z,38.66
2022-08-10T12:03:54.506Z,38.73
2022-08-10T12:05:57.617Z,38.68
2022-08-10T12:10:04.950Z,38.65
2022-08-10T12:10:27.685Z,38.63
2022-08-10T12:12:35.695Z,38.29
2022-08-10T12:14:56.614Z,38.43
2022-08-10T12:17:04.542Z,38.34
2022-08-10T12:19:14.951Z,38.33
2022-08-10T12:21:25.368Z,38.02
2022-08-10T12:23:39.171Z,38.06
2022-08-10T12:25:56.296Z,37.98
2022-08-10T12:28:10.647Z,38.00
2022-08-10T12:30:17.042Z,37.87
2022-08-10T12:32:30.015Z,37.83
2022-08-10T12:34:41.499Z,37.77
2022-08-10T12:36:53.283Z,37.65
2022-08-10T12:39:07.861Z,37.71
2022-08-10T12:41:43.370Z,37.51
2022-08-10T12:44:06.742Z,37.65
2022-08-10T12:46:20.445Z,37.73
2022-08-10T12:48:31.587Z,37.48
2022-08-10T12:50:43.083Z,37.61
2022-08-10T12:52:58.964Z,37.62
2022-08-10T12:55:13.058Z,37.38
2022-08-10T12:57:19.260Z,37.34
2022-08-10T12:59:25.175Z,37.62
2022-08-10T13:02:08.687Z,37.50
2022-08-10T13:04:21.855Z,37.46
2022-08-10T13:06:24.503Z,37.33
2022-08-10T13:08:45.817Z,37.11
2022-08-10T13:10:54.566Z,37.05
2022-08-10T13:12:59.492Z,37.32
2022-08-10T13:15:45.993Z,37.23
2022-08-10T13:17:39.571Z,37.09
2022-08-10T13:19:56.473Z,37.08
2022-08-10T13:22:04.116Z,37.07
2022-08-10T13:24:13.090Z,37.07
2022-08-10T13:26:20.340Z,37.13
2022-08-10T13:28:37.407Z,37.12
2022-08-10T13:30:50.604Z,37.05
2022-08-10T13:32:54.638Z,37.18
2022-08-10T13:35:04.750Z,37.09
2022-08-10T13:37:11.205Z,37.15
2022-08-10T13:39:15.711Z,36.88
2022-08-10T13:41:20.593Z,37.16
2022-08-10T13:43:26.026Z,37.13
2022-08-10T13:45:30.094Z,36.92
2022-08-10T13:47:47.992Z,36.94
2022-08-10T13:49:57.268Z,36.90
2022-08-10T13:52:02.400Z,37.00
2022-08-10T13:54:08.908Z,37.06
2022-08-10T13:56:15.663Z,36.97
2022-08-10T13:58:24.150Z,36.77
2022-08-10T14:00:33.947Z,36.89
2022-08-10T14:02:44.201Z,36.79
2022-08-10T14:04:48.244Z,36.83
2022-08-10T14:06:55.483Z,36.84
2022-08-10T14:09:01.614Z,36.63
2022-08-10T14:11:13.863Z,36.88
2022-08-10T14:13:19.713Z,36.58
2022-08-10T14:15:30.816Z,36.55
2022-08-10T14:17:40.178Z,36.61
2022-08-10T14:19:57.443Z,36.52
2022-08-10T14:22:03.258Z,36.62
2022-08-10T14:24:06.911Z,36.51
2022-08-10T14:26:15.835Z,36.37
2022-08-10T14:28:22.145Z,36.39
2022-08-10T14:30:30.721Z,36.40
2022-08-10T14:32:43.137Z,36.26
2022-08-10T14:36:08.398Z,36.18
2022-08-10T14:37:18.185Z,36.29
2022-08-10T14:39:26.228Z,36.18
2022-08-10T14:42:03.073Z,35.95
2022-08-10T14:43:59.623Z,35.93
2022-08-10T14:46:06.152Z,35.98
2022-08-10T14:48:14.959Z,35.61
2022-08-10T14:50:32.612Z,35.51
2022-08-10T14:52:44.369Z,35.65
2022-08-10T14:54:51.586Z,35.17
2022-08-10T14:56:57.298Z,35.01
2022-08-10T14:59:07.348Z,35.36
2022-08-10T15:01:12.807Z,34.96
2022-08-10T15:03:58.447Z,34.78
2022-08-10T15:05:41.876Z,34.92
2022-08-10T15:07:47.717Z,34.84
2022-08-10T15:10:04.339Z,34.84
2022-08-10T15:12:13.816Z,34.84
2022-08-10T15:14:42.405Z,34.54
2022-08-10T15:16:43.037Z,34.56
2022-08-10T15:18:57.484Z,34.60
2022-08-10T15:21:03.638Z,34.37
2022-08-10T15:23:29.868Z,34.44
2022-08-10T15:25:39.030Z,34.49
2022-08-10T15:27:54.214Z,34.32
2022-08-10T15:29:59.068Z,34.26
2022-08-10T15:32:20.371Z,34.18
2022-08-10T15:34:43.035Z,34.04
2022-08-10T15:37:40.108Z,33.90
2022-08-10T15:40:22.410Z,33.69
2022-08-10T15:42:00.338Z,33.58
2022-08-10T15:44:05.469Z,33.58
2022-08-10T15:46:15.568Z,33.53
2022-08-10T15:48:21.431Z,33.55
2022-08-10T15:50:29.006Z,33.44
2022-08-10T15:53:01.112Z,33.46
2022-08-10T15:55:41.198Z,33.31
2022-08-10T15:57:37.423Z,33.21
2022-08-10T15:59:47.529Z,33.23
2022-08-10T16:02:13.026Z,32.85
2022-08-10T16:04:21.558Z,33.05
2022-08-10T16:06:39.191Z,33.01
2022-08-10T16:08:56.457Z,32.99
2022-08-10T16:11:16.172Z,32.93
2022-08-10T16:14:00.898Z,32.68
2022-08-10T16:15:53.304Z,32.82
2022-08-10T16:18:01.480Z,32.89
2022-08-10T16:20:07.127Z,32.82
2022-08-10T16:22:36.798Z,32.84
2022-08-10T16:24:37.151Z,32.36
2022-08-10T16:26:46.405Z,32.61
2022-08-10T16:28:53.038Z,32.83
2022-08-10T16:30:58.687Z,32.62
2022-08-10T16:33:01.885Z,32.76
2022-08-10T16:35:12.419Z,32.73
2022-08-10T16:37:17.958Z,32.86
2022-08-10T16:40:00.358Z,32.74
2022-08-10T16:42:04.447Z,32.72
2022-08-10T16:44:11.524Z,32.73
2022-08-10T16:46:17.643Z,32.79
2022-08-10T16:48:49.952Z,32.71
2022-08-10T16:50:52.444Z,32.81
2022-08-10T16:52:57.286Z,32.60
2022-08-10T16:55:08.141Z,32.47
2022-08-10T16:57:29.894Z,32.60
2022-08-10T16:59:37.791Z,32.59
2022-08-10T17:01:42.844Z,32.31
2022-08-10T17:04:07.340Z,32.58
2022-08-10T17:06:17.240Z,32.53
2022-08-10T17:08:23.761Z,32.61
2022-08-10T17:10:30.599Z,32.31
2022-08-10T17:12:35.651Z,32.24
2022-08-10T17:14:40.618Z,32.29
2022-08-10T17:16:45.602Z,32.08
2022-08-10T17:18:49.433Z,32.02
2022-08-10T17:20:52.497Z,31.89
2022-08-10T17:22:59.008Z,31.94
2022-08-10T17:25:07.317Z,31.78
2022-08-10T17:28:05.181Z,31.76
2022-08-10T17:29:57.433Z,31.52
2022-08-10T17:32:15.719Z,31.34
2022-08-10T17:34:24.814Z,31.37
2022-08-10T17:36:36.589Z,31.30
2022-08-10T17:38:39.963Z,31.43
2022-08-10T17:40:48.894Z,31.35
2022-08-10T17:42:55.128Z,31.24
2022-08-10T17:44:59.574Z,31.30
2022-08-10T17:47:11.112Z,31.35
2022-08-10T17:49:17.920Z,31.26
2022-08-10T17:51:21.844Z,31.33
2022-08-10T17:53:36.226Z,31.17
2022-08-10T17:55:43.180Z,30.96
2022-08-10T17:57:47.544Z,30.94
2022-08-10T18:00:10.159Z,30.79
2022-08-10T18:02:17.970Z,30.72
2022-08-10T18:04:23.095Z,30.59
2022-08-10T18:06:27.311Z,30.53
2022-08-10T18:08:33.465Z,30.55
2022-08-10T18:10:37.295Z,30.54
2022-08-10T18:12:44.308Z,30.52
2022-08-10T18:14:51.142Z,30.38
2022-08-10T18:16:56.311Z,30.34
2022-08-10T18:19:05.308Z,30.42
2022-08-10T18:21:17.323Z,30.38
2022-08-10T18:23:26.913Z,30.39
2022-08-10T18:25:33.954Z,30.30
2022-08-10T18:28:01.125Z,29.96
2022-08-10T18:30:09.063Z,30.42
2022-08-10T18:32:13.610Z,30.19
2022-08-10T18:34:20.380Z,30.31
2022-08-10T18:36:26.819Z,30.12
2022-08-10T18:38:31.404Z,30.17
2022-08-10T18:40:36.192Z,30.11
2022-08-10T18:42:47.291Z,30.11
2022-08-10T18:44:55.985Z,30.27
2022-08-10T18:47:05.413Z,30.30
2022-08-10T18:49:13.647Z,29.99
2022-08-10T18:51:26.020Z,29.95
2022-08-10T18:53:34.086Z,30.04
2022-08-10T18:55:57.892Z,30.28
2022-08-10T18:58:27.580Z,30.26
2022-08-10T19:00:34.997Z,30.12
2022-08-10T19:03:01.954Z,30.24
2022-08-10T19:05:30.438Z,30.26
2022-08-10T19:07:55.030Z,30.22
2022-08-10T19:10:09.919Z,30.28
2022-08-10T19:12:30.348Z,30.37
2022-08-10T19:14:38.365Z,30.37
2022-08-10T19:16:49.599Z,30.26
2022-08-10T19:19:21.934Z,30.33
2022-08-10T19:21:31.959Z,30.16
2022-08-10T19:23:44.445Z,30.46
2022-08-10T19:26:38.036Z,30.46
2022-08-10T19:28:19.460Z,30.49
2022-08-10T19:30:27.007Z,30.54
2022-08-10T19:32:37.026Z,30.37
2022-08-10T19:34:53.290Z,30.72
2022-08-10T19:37:05.214Z,30.34
2022-08-10T19:39:18.460Z,30.71
2022-08-10T19:41:32.761Z,30.58
2022-08-10T19:44:00.883Z,30.58
2022-08-10T19:46:12.075Z,30.72
2022-08-10T19:48:24.108Z,30.58
2022-08-10T19:50:30.246Z,30.85
2022-08-10T19:52:35.527Z,30.71
2022-08-10T19:54:50.226Z,30.80
2022-08-10T19:57:06.546Z,30.93
2022-08-10T20:00:15.133Z,30.89
2022-08-10T20:01:55.423Z,30.81
2022-08-10T20:04:05.804Z,30.82
2022-08-10T20:06:19.325Z,30.97
2022-08-10T20:08:30.990Z,31.13
2022-08-10T20:10:42.577Z,31.02
2022-08-10T20:12:52.898Z,31.01
2022-08-10T20:15:02.975Z,31.01
2022-08-10T20:17:09.779Z,31.08
2022-08-10T20:19:16.500Z,31.04
2022-08-10T20:21:24.996Z,31.13
2022-08-10T20:23:33.950Z,31.12
2022-08-10T20:25:43.455Z,31.33
2022-08-10T20:28:00.710Z,31.26
2022-08-10T20:30:18.105Z,31.25
2022-08-10T20:32:25.529Z,31.32
2022-08-10T20:34:31.392Z,31.32
2022-08-10T20:36:38.124Z,31.19
2022-08-10T20:38:49.188Z,31.41
2022-08-10T20:41:02.566Z,31.32
2022-08-10T20:43:17.372Z,31.31
2022-08-10T20:45:25.877Z,31.34
2022-08-10T20:47:44.240Z,31.49
2022-08-10T20:50:07.966Z,31.49
2022-08-10T20:52:12.202Z,31.56
2022-08-10T20:54:17.921Z,31.39
2022-08-10T20:56:40.427Z,31.41
2022-08-10T20:59:09.350Z,31.60
2022-08-10T21:01:17.412Z,31.28
2022-08-10T21:03:33.770Z,31.60
2022-08-10T21:05:54.246Z,31.35
2022-08-10T21:08:09.675Z,31.49
2022-08-10T21:10:27.013Z,31.68
2022-08-10T21:12:57.534Z,31.68
2022-08-10T21:15:15.491Z,31.75
2022-08-10T21:17:34.915Z,31.58
2022-08-10T21:20:16.285Z,31.72
2022-08-10T21:22:26.247Z,31.71
2022-08-10T21:24:36.723Z,32.03
